createdAt,value
2022-10-05T00:01:32.561Z,1010.94
2022-10-05T00:04:40.482Z,1010.91
2022-10-05T00:07:48.639Z,1010.92
2022-10-05T00:10:56.195Z,1010.91
2022-10-05T00:14:04.614Z,1010.89
2022-10-05T00:17:13.121Z,1010.94
2022-10-05T00:20:20.662Z,1010.91
2022-10-05T00:23:29.166Z,1010.92
2022-10-05T00:26:37.077Z,1010.91
2022-10-05T00:29:45.489Z,1010.80
2022-10-05T00:32:58.648Z,1010.82
2022-10-05T00:35:56.756Z,1010.77
2022-10-05T00:39:05.225Z,1010.85
2022-10-05T00:42:12.826Z,1010.87
2022-10-05T00:45:20.815Z,1010.80
2022-10-05T00:48:29.801Z,1010.81
2022-10-05T00:51:37.214Z,1010.87
2022-10-05T00:54:45.307Z,1010.80
2022-10-05T00:57:53.071Z,1010.79
2022-10-05T01:01:00.849Z,1010.77
2022-10-05T01:04:08.906Z,1010.83
2022-10-05T01:07:16.783Z,1010.80
2022-10-05T01:10:24.175Z,1010.81
2022-10-05T01:13:31.921Z,1010.78
2022-10-05T01:16:39.446Z,1010.82
2022-10-05T01:19:47.852Z,1010.91
2022-10-05T01:22:56.375Z,1010.76
2022-10-05T01:26:03.807Z,1010.70
2022-10-05T01:29:12.102Z,1010.84
2022-10-05T01:32:20.188Z,1010.72
2022-10-05T01:35:27.750Z,1010.74
2022-10-05T01:38:35.939Z,1010.73
2022-10-05T01:41:43.888Z,1010.79
2022-10-05T01:44:51.593Z,1010.80
2022-10-05T01:47:59.914Z,1010.81
2022-10-05T01:51:07.793Z,1010.81
2022-10-05T01:54:15.507Z,1010.75
2022-10-05T01:57:23.516Z,1010.69
2022-10-05T02:00:31.349Z,1010.68
2022-10-05T02:03:39.187Z,1010.66
2022-10-05T02:06:47.048Z,1010.63
2022-10-05T02:09:55.487Z,1010.70
2022-10-05T02:13:03.489Z,1010.64
2022-10-05T02:16:11.013Z,1010.64
2022-10-05T02:19:19.198Z,1010.66
2022-10-05T02:22:27.021Z,1010.61
2022-10-05T02:25:34.289Z,1010.48
2022-10-05T02:28:42.523Z,1010.52
2022-10-05T02:31:50.386Z,1010.40
2022-10-05T02:34:58.073Z,1010.32
2022-10-05T02:38:06.354Z,1010.28
2022-10-05T02:41:14.284Z,1010.30
2022-10-05T02:44:22.093Z,1010.18
2022-10-05T02:47:30.203Z,1010.12
2022-10-05T02:50:38.116Z,1010.09
2022-10-05T02:53:46.300Z,1010.03
2022-10-05T02:56:53.936Z,1009.95
2022-10-05T03:00:02.327Z,1009.95
2022-10-05T03:03:10.029Z,1009.86
2022-10-05T03:06:17.545Z,1009.85
2022-10-05T03:09:25.741Z,1009.90
2022-10-05T03:12:33.795Z,1010.01
2022-10-05T03:15:41.613Z,1010.01
2022-10-05T03:18:49.753Z,1009.98
2022-10-05T03:21:57.172Z,1010.03
2022-10-05T03:25:05.350Z,1010.02
2022-10-05T03:28:13.448Z,1009.94
2022-10-05T03:31:20.825Z,1009.91
2022-10-05T03:34:29.140Z,1009.94
2022-10-05T03:37:37.466Z,1009.84
2022-10-05T03:40:44.879Z,1009.77
2022-10-05T03:43:53.217Z,1009.72
2022-10-05T03:47:00.928Z,1009.81
2022-10-05T03:50:08.757Z,1009.70
2022-10-05T03:53:17.004Z,1009.79
2022-10-05T03:56:24.772Z,1009.77
2022-10-05T03:59:32.908Z,1009.81
2022-10-05T04:02:41.017Z,1009.71
2022-10-05T04:05:48.821Z,1009.61
2022-10-05T04:08:56.623Z,1009.68
2022-10-05T04:12:04.195Z,1009.62
2022-10-05T04:15:16.515Z,1009.59
2022-10-05T04:18:15.310Z,1009.61
2022-10-05T04:21:24.010Z,1009.57
2022-10-05T04:24:32.371Z,1009.54
2022-10-05T04:27:40.230Z,1009.42
2022-10-05T04:30:47.969Z,1009.53
2022-10-05T04:33:55.843Z,1009.54
2022-10-05T04:37:03.388Z,1009.46
2022-10-05T04:40:11.689Z,1009.49
2022-10-05T04:43:19.002Z,1009.48
2022-10-05T04:46:26.492Z,1009.39
2022-10-05T04:49:34.764Z,1009.30
2022-10-05T04:52:43.168Z,1009.21
2022-10-05T04:55:50.656Z,1009.20
2022-10-05T04:58:58.864Z,1009.13
2022-10-05T05:02:06.939Z,1009.19
2022-10-05T05:05:14.787Z,1009.15
2022-10-05T05:08:23.043Z,1009.22
2022-10-05T05:11:31.789Z,1009.13
2022-10-05T05:14:39.669Z,1009.20
2022-10-05T05:17:48.062Z,1009.18
2022-10-05T05:20:56.020Z,1009.17
2022-10-05T05:24:03.905Z,1009.17
2022-10-05T05:27:11.969Z,1009.15
2022-10-05T05:30:20.342Z,1009.18
2022-10-05T05:33:28.562Z,1009.17
2022-10-05T05:36:36.900Z,1009.22
2022-10-05T05:39:45.064Z,1009.28
2022-10-05T05:42:53.546Z,1009.33
2022-10-05T05:46:01.665Z,1009.37
2022-10-05T05:49:09.665Z,1009.35
2022-10-05T05:52:17.518Z,1009.27
2022-10-05T05:55:29.964Z,1009.25
2022-10-05T05:58:27.507Z,1009.29
2022-10-05T06:01:35.973Z,1009.37
2022-10-05T06:04:45.290Z,1009.44
2022-10-05T06:07:52.883Z,1009.42
2022-10-05T06:11:01.000Z,1009.35
2022-10-05T06:14:09.584Z,1009.45
2022-10-05T06:17:17.183Z,1009.48
2022-10-05T06:20:25.262Z,1009.59
2022-10-05T06:23:33.208Z,1009.54
2022-10-05T06:26:40.705Z,1009.46
2022-10-05T06:29:49.325Z,1009.48
2022-10-05T06:32:57.832Z,1009.44
2022-10-05T06:36:05.397Z,1009.51
2022-10-05T06:39:13.599Z,1009.50
2022-10-05T06:42:21.538Z,1009.53
2022-10-05T06:45:29.170Z,1009.47
2022-10-05T06:48:37.321Z,1009.51
2022-10-05T06:51:45.031Z,1009.53
2022-10-05T06:54:52.776Z,1009.49
2022-10-05T06:58:01.013Z,1009.51
2022-10-05T07:01:08.681Z,1009.52
2022-10-05T07:04:16.462Z,1009.58
2022-10-05T07:07:24.112Z,1009.50
2022-10-05T07:10:32.385Z,1009.48
2022-10-05T07:13:40.175Z,1009.46
2022-10-05T07:16:47.838Z,1009.52
2022-10-05T07:19:55.667Z,1009.56
2022-10-05T07:23:03.218Z,1009.49
2022-10-05T07:26:11.018Z,1009.46
2022-10-05T07:29:19.103Z,1009.48
2022-10-05T07:32:26.455Z,1009.47
2022-10-05T07:35:34.451Z,1009.44
2022-10-05T07:38:42.173Z,1009.41
2022-10-05T07:41:49.923Z,1009.44
2022-10-05T07:44:57.915Z,1009.38
2022-10-05T07:48:05.425Z,1009.33
2022-10-05T07:51:13.186Z,1009.29
2022-10-05T07:54:21.199Z,1009.37
2022-10-05T07:57:28.466Z,1009.31
2022-10-05T08:00:36.574Z,1009.39
2022-10-05T08:03:44.210Z,1009.32
2022-10-05T08:06:51.971Z,1009.37
2022-10-05T08:09:59.801Z,1009.31
2022-10-05T08:13:07.654Z,1009.24
2022-10-05T08:16:15.540Z,1009.19
2022-10-05T08:19:23.533Z,1009.23
2022-10-05T08:22:31.248Z,1009.23
2022-10-05T08:25:39.155Z,1009.23
2022-10-05T08:28:47.275Z,1009.25
2022-10-05T08:31:54.987Z,1009.22
2022-10-05T08:35:02.751Z,1009.26
2022-10-05T08:38:10.351Z,1009.27
2022-10-05T08:41:18.400Z,1009.19
2022-10-05T08:44:28.062Z,1009.23
2022-10-05T08:47:35.741Z,1009.25
2022-10-05T08:50:43.973Z,1009.25
2022-10-05T08:53:51.855Z,1009.34
2022-10-05T08:56:59.455Z,1009.40
2022-10-05T09:00:07.003Z,1009.40
2022-10-05T09:03:14.309Z,1009.41
2022-10-05T09:06:22.397Z,1009.35
2022-10-05T09:09:30.122Z,1009.36
2022-10-05T09:12:37.546Z,1009.35
2022-10-05T09:15:45.770Z,1009.37
2022-10-05T09:18:53.342Z,1009.42
2022-10-05T09:22:00.674Z,1009.41
2022-10-05T09:25:08.915Z,1009.36
2022-10-05T09:28:16.608Z,1009.29
2022-10-05T09:31:24.203Z,1009.30
2022-10-05T09:34:32.260Z,1009.24
2022-10-05T09:37:39.486Z,1009.36
2022-10-05T09:40:47.678Z,1009.37
2022-10-05T09:43:55.536Z,1009.32
2022-10-05T09:47:03.278Z,1009.38
2022-10-05T09:50:11.218Z,1009.32
2022-10-05T09:53:19.011Z,1009.36
2022-10-05T09:59:35.313Z,1009.40
2022-10-05T10:02:43.233Z,1009.39
2022-10-05T10:05:51.002Z,1009.42
2022-10-05T10:08:58.727Z,1009.40
2022-10-05T10:12:06.807Z,1009.32
2022-10-05T10:15:14.519Z,1009.30
2022-10-05T10:18:22.078Z,1009.28
2022-10-05T10:21:30.042Z,1009.28
2022-10-05T10:24:37.613Z,1009.30
2022-10-05T10:27:49.089Z,1009.38
2022-10-05T10:30:48.983Z,1009.29
2022-10-05T10:33:56.234Z,1009.25
2022-10-05T10:37:04.334Z,1009.25
2022-10-05T10:40:12.335Z,1009.16
2022-10-05T10:43:19.646Z,1009.12
2022-10-05T10:46:27.671Z,1009.22
2022-10-05T10:49:35.618Z,1009.10
2022-10-05T10:52:42.900Z,1009.07
2022-10-05T10:55:50.911Z,1009.04
2022-10-05T10:58:58.543Z,1009.03
2022-10-05T11:02:06.373Z,1008.95
2022-10-05T11:05:14.454Z,1009.03
2022-10-05T11:08:22.054Z,1009.03
2022-10-05T11:11:29.767Z,1009.07
2022-10-05T11:14:38.197Z,1009.02
2022-10-05T11:17:46.338Z,1009.02
2022-10-05T11:20:54.319Z,1009.07
2022-10-05T11:24:02.240Z,1009.00
2022-10-05T11:27:10.717Z,1008.95
2022-10-05T11:30:18.814Z,1009.01
2022-10-05T11:33:26.603Z,1009.01
2022-10-05T11:36:34.393Z,1008.98
2022-10-05T11:39:41.974Z,1009.01
2022-10-05T11:42:49.744Z,1008.91
2022-10-05T11:45:58.119Z,1008.91
2022-10-05T11:49:05.808Z,1008.82
2022-10-05T11:52:14.258Z,1008.73
2022-10-05T11:55:22.728Z,1008.75
2022-10-05T11:58:30.344Z,1008.73
2022-10-05T12:01:38.767Z,1008.63
2022-10-05T12:04:47.314Z,1008.52
2022-10-05T12:07:54.944Z,1008.51
2022-10-05T12:11:03.606Z,1008.49
2022-10-05T12:14:11.807Z,1008.42
2022-10-05T12:17:19.755Z,1008.42
2022-10-05T12:20:28.195Z,1008.35
2022-10-05T12:23:36.297Z,1008.34
2022-10-05T12:26:44.471Z,1008.31
2022-10-05T12:29:52.938Z,1008.31
2022-10-05T12:33:02.257Z,1008.21
2022-10-05T12:36:10.555Z,1008.20
2022-10-05T12:39:18.602Z,1008.18
2022-10-05T12:42:26.906Z,1008.17
2022-10-05T12:45:34.895Z,1008.18
2022-10-05T12:48:42.937Z,1008.12
2022-10-05T12:51:51.531Z,1007.95
2022-10-05T12:54:59.670Z,1008.08
2022-10-05T12:58:07.742Z,1007.96
2022-10-05T13:01:16.300Z,1007.96
2022-10-05T13:04:24.344Z,1007.92
2022-10-05T13:07:32.442Z,1007.91
2022-10-05T13:10:40.583Z,1007.93
2022-10-05T13:13:48.317Z,1007.81
2022-10-05T13:16:56.873Z,1007.73
2022-10-05T13:20:05.149Z,1007.66
2022-10-05T13:23:12.841Z,1007.61
2022-10-05T13:26:21.330Z,1007.67
2022-10-05T13:29:29.791Z,1007.53
2022-10-05T13:32:37.521Z,1007.59
2022-10-05T13:35:46.233Z,1007.59
2022-10-05T13:38:53.844Z,1007.48
2022-10-05T13:42:02.565Z,1007.49
2022-10-05T13:45:10.958Z,1007.54
2022-10-05T13:48:18.595Z,1007.54
2022-10-05T13:51:27.230Z,1007.54
2022-10-05T13:54:35.426Z,1007.53
2022-10-05T13:57:43.611Z,1007.50
2022-10-05T14:00:51.619Z,1007.44
2022-10-05T14:03:59.713Z,1007.49
2022-10-05T14:07:08.231Z,1007.42
2022-10-05T14:10:16.282Z,1007.33
2022-10-05T14:13:24.319Z,1007.30
2022-10-05T14:16:32.573Z,1007.14
2022-10-05T14:19:40.147Z,1007.18
2022-10-05T14:22:48.657Z,1007.16
2022-10-05T14:25:57.419Z,1007.07
2022-10-05T14:29:05.140Z,1006.96
2022-10-05T14:32:13.498Z,1006.89
2022-10-05T14:35:21.774Z,1006.82
2022-10-05T14:38:29.261Z,1006.76
2022-10-05T14:41:37.766Z,1006.72
2022-10-05T14:44:46.152Z,1006.66
2022-10-05T14:47:53.682Z,1006.63
2022-10-05T14:51:02.248Z,1006.63
2022-10-05T14:54:10.188Z,1006.49
2022-10-05T14:57:17.920Z,1006.49
2022-10-05T15:00:26.199Z,1006.39
2022-10-05T15:03:33.991Z,1006.28
2022-10-05T15:06:41.464Z,1006.21
2022-10-05T15:09:49.664Z,1006.32
2022-10-05T15:12:57.550Z,1006.26
2022-10-05T15:16:05.238Z,1006.24
2022-10-05T15:19:12.740Z,1006.15
2022-10-05T15:22:20.557Z,1006.19
2022-10-05T15:25:28.116Z,1006.17
2022-10-05T15:28:35.915Z,1006.20
2022-10-05T15:31:43.792Z,1006.11
2022-10-05T15:34:51.452Z,1006.16
2022-10-05T15:37:59.074Z,1006.11
2022-10-05T15:41:07.263Z,1006.17
2022-10-05T15:44:14.741Z,1006.07
2022-10-05T15:47:23.095Z,1006.13
2022-10-05T15:50:31.447Z,1006.06
2022-10-05T15:53:38.901Z,1006.10
2022-10-05T15:56:47.237Z,1006.17
2022-10-05T15:59:55.475Z,1006.11
2022-10-05T16:03:03.120Z,1006.15
2022-10-05T16:06:11.262Z,1006.11
2022-10-05T16:09:19.234Z,1006.10
2022-10-05T16:12:27.223Z,1006.11
2022-10-05T16:15:35.381Z,1006.13
2022-10-05T16:18:43.015Z,1006.08
2022-10-05T16:21:50.926Z,1006.09
2022-10-05T16:24:59.028Z,1006.16
2022-10-05T16:28:07.087Z,1006.13
2022-10-05T16:31:14.491Z,1006.14
2022-10-05T16:34:22.013Z,1006.09
2022-10-05T16:37:29.631Z,1006.15
2022-10-05T16:40:37.228Z,1006.02
2022-10-05T16:43:44.875Z,1006.05
2022-10-05T16:46:52.802Z,1006.09
2022-10-05T16:50:00.784Z,1006.09
2022-10-05T16:53:08.097Z,1006.12
2022-10-05T16:56:16.194Z,1006.21
2022-10-05T16:59:24.215Z,1006.17
2022-10-05T17:02:32.617Z,1006.27
2022-10-05T17:05:40.219Z,1006.24
2022-10-05T17:08:47.479Z,1006.33
2022-10-05T17:11:55.371Z,1006.32
2022-10-05T17:15:03.002Z,1006.33
2022-10-05T17:18:10.829Z,1006.39
2022-10-05T17:21:18.915Z,1006.39
2022-10-05T17:24:26.335Z,1006.54
2022-10-05T17:27:34.316Z,1006.50
2022-10-05T17:30:42.465Z,1006.51
2022-10-05T17:33:49.797Z,1006.57
2022-10-05T17:36:57.875Z,1006.68
2022-10-05T17:40:05.769Z,1006.57
2022-10-05T17:43:13.292Z,1006.66
2022-10-05T17:46:21.618Z,1006.71
2022-10-05T17:49:29.393Z,1006.77
2022-10-05T17:52:36.802Z,1006.89
2022-10-05T17:55:44.745Z,1006.88
2022-10-05T17:58:52.003Z,1006.93
2022-10-05T18:02:00.285Z,1006.98
2022-10-05T18:05:07.936Z,1007.05
2022-10-05T18:08:15.359Z,1007.10
2022-10-05T18:11:23.146Z,1007.07
2022-10-05T18:14:30.659Z,1007.09
2022-10-05T18:17:38.499Z,1007.04
2022-10-05T18:20:48.375Z,1007.00
2022-10-05T18:23:56.634Z,1006.99
2022-10-05T18:27:04.471Z,1006.97
2022-10-05T18:30:12.870Z,1006.99
2022-10-05T18:33:20.406Z,1006.92
2022-10-05T18:36:28.041Z,1006.90
2022-10-05T18:39:35.875Z,1006.93
2022-10-05T18:42:43.986Z,1006.87
2022-10-05T18:45:51.915Z,1006.88
2022-10-05T18:48:59.883Z,1006.94
2022-10-05T18:52:08.721Z,1006.76
2022-10-05T18:55:16.531Z,1006.98
2022-10-05T18:58:24.603Z,1006.92
2022-10-05T19:01:32.772Z,1006.94
2022-10-05T19:04:40.447Z,1007.00
2022-10-05T19:07:48.656Z,1006.88
2022-10-05T19:10:57.037Z,1006.94
2022-10-05T19:14:04.415Z,1007.00
2022-10-05T19:17:12.633Z,1007.03
2022-10-05T19:20:20.871Z,1007.06
2022-10-05T19:23:28.800Z,1007.13
2022-10-05T19:26:37.218Z,1007.20
2022-10-05T19:29:44.800Z,1007.26
2022-10-05T19:32:52.562Z,1007.25
2022-10-05T19:36:00.393Z,1007.24
2022-10-05T19:39:08.180Z,1007.38
2022-10-05T19:42:15.884Z,1007.24
2022-10-05T19:45:23.725Z,1007.36
2022-10-05T19:48:32.055Z,1007.45
2022-10-05T19:51:40.256Z,1007.41
2022-10-05T19:54:48.078Z,1007.46
2022-10-05T19:57:56.235Z,1007.49
2022-10-05T20:01:03.571Z,1007.38
2022-10-05T20:04:11.863Z,1007.46
2022-10-05T20:07:19.942Z,1007.53
2022-10-05T20:10:27.337Z,1007.54
2022-10-05T20:13:35.531Z,1007.54
2022-10-05T20:19:51.026Z,1007.56
2022-10-05T20:22:59.207Z,1007.60
2022-10-05T20:26:07.139Z,1007.60
2022-10-05T20:29:14.949Z,1007.49
2022-10-05T20:32:26.379Z,1007.54
2022-10-05T20:35:25.665Z,1007.65
2022-10-05T20:38:36.302Z,1007.64
2022-10-05T20:41:37.428Z,1007.71
2022-10-05T20:44:44.807Z,1007.76
2022-10-05T20:47:52.837Z,1007.72
2022-10-05T20:51:00.722Z,1007.84
2022-10-05T20:54:08.913Z,1007.81
2022-10-05T20:57:16.726Z,1007.94
2022-10-05T21:00:24.595Z,1008.04
2022-10-05T21:03:32.471Z,1008.11
2022-10-05T21:06:40.305Z,1008.14
2022-10-05T21:09:48.096Z,1008.02
2022-10-05T21:12:56.318Z,1008.20
2022-10-05T21:16:03.812Z,1008.30
2022-10-05T21:19:12.170Z,1008.32
2022-10-05T21:22:20.356Z,1008.45
2022-10-05T21:25:27.815Z,1008.53
2022-10-05T21:28:36.293Z,1008.57
2022-10-05T21:31:44.570Z,1008.64
2022-10-05T21:34:52.008Z,1008.61
2022-10-05T21:38:00.448Z,1008.64
2022-10-05T21:41:08.638Z,1008.74
2022-10-05T21:44:16.238Z,1008.76
2022-10-05T21:47:24.331Z,1008.83
2022-10-05T21:50:32.139Z,1008.80
2022-10-05T21:53:39.961Z,1008.86
2022-10-05T21:56:47.844Z,1008.82
2022-10-05T21:59:55.575Z,1008.86
2022-10-05T22:03:02.935Z,1008.90
2022-10-05T22:06:10.966Z,1008.90
2022-10-05T22:09:18.914Z,1008.95
2022-10-05T22:12:26.764Z,1008.83
2022-10-05T22:15:34.558Z,1008.89
2022-10-05T22:18:42.849Z,1008.93
2022-10-05T22:21:50.700Z,1008.87
2022-10-05T22:24:58.616Z,1008.88
2022-10-05T22:28:06.546Z,1008.88
2022-10-05T22:31:14.854Z,1008.89
2022-10-05T22:34:22.709Z,1008.94
2022-10-05T22:37:30.418Z,1008.87
2022-10-05T22:40:38.405Z,1008.95
2022-10-05T22:43:46.225Z,1008.97
2022-10-05T22:46:54.144Z,1008.99
2022-10-05T22:50:01.554Z,1009.02
2022-10-05T22:53:09.514Z,1009.06
2022-10-05T22:56:17.223Z,1009.00
2022-10-05T22:59:24.907Z,1009.05
2022-10-05T23:02:33.099Z,1009.04
2022-10-05T23:05:40.863Z,1009.10
2022-10-05T23:08:48.198Z,1009.12
2022-10-05T23:11:56.271Z,1009.09
2022-10-05T23:15:04.099Z,1009.07
2022-10-05T23:18:11.950Z,1008.95
2022-10-05T23:21:20.085Z,1009.06
2022-10-05T23:24:27.614Z,1009.09
2022-10-05T23:27:35.849Z,1009.09
2022-10-05T23:30:43.918Z,1009.12
2022-10-05T23:33:51.297Z,1009.11
2022-10-05T23:36:59.528Z,1009.18
2022-10-05T23:40:07.448Z,1009.31
2022-10-05T23:43:14.811Z,1009.24
2022-10-05T23:46:23.159Z,1009.27
2022-10-05T23:49:31.174Z,1009.43
2022-10-05T23:52:38.564Z,1009.47
2022-10-05T23:55:46.625Z,1009.47
2022-10-05T23:58:54.296Z,1009.45
